sensor_id;sensor_type;location;lat;lon;timestamp;temperature;humidity
15630;DHT22;7914;50.842;0.166;2022-07-06T00:01:42;15.30;99.90
15630;DHT22;7914;50.842;0.166;2022-07-06T00:04:08;15.20;99.90
15630;DHT22;7914;50.842;0.166;2022-07-06T00:06:34;15.20;99.90
15630;DHT22;7914;50.842;0.166;2022-07-06T00:09:00;15.20;99.90
15630;DHT22;7914;50.842;0.166;2022-07-06T00:11:26;15.10;99.90
15630;DHT22;7914;50.842;0.166;2022-07-06T00:13:51;15.00;99.90
15630;DHT22;7914;50.842;0.166;2022-07-06T00:16:18;15.00;99.90
15630;DHT22;7914;50.842;0.166;2022-07-06T00:18:45;14.90;99.90
15630;DHT22;7914;50.842;0.166;2022-07-06T00:21:11;15.00;99.90
15630;DHT22;7914;50.842;0.166;2022-07-06T00:23:37;14.90;99.90
15630;DHT22;7914;50.842;0.166;2022-07-06T00:26:02;14.90;99.90
15630;DHT22;7914;50.842;0.166;2022-07-06T00:28:28;14.90;99.90
15630;DHT22;7914;50.842;0.166;2022-07-06T00:30:54;14.80;99.90
15630;DHT22;7914;50.842;0.166;2022-07-06T00:33:20;14.80;99.90
15630;DHT22;7914;50.842;0.166;2022-07-06T00:35:46;14.70;99.90
15630;DHT22;7914;50.842;0.166;2022-07-06T00:38:12;14.70;99.90
15630;DHT22;7914;50.842;0.166;2022-07-06T00:40:37;14.60;99.90
15630;DHT22;7914;50.842;0.166;2022-07-06T00:43:03;14.60;99.90
15630;DHT22;7914;50.842;0.166;2022-07-06T00:45:29;14.50;99.90
15630;DHT22;7914;50.842;0.166;2022-07-06T00:47:55;14.50;99.90
15630;DHT22;7914;50.842;0.166;2022-07-06T00:50:21;14.50;99.90
15630;DHT22;7914;50.842;0.166;2022-07-06T00:52:53;14.60;99.90
15630;DHT22;7914;50.842;0.166;2022-07-06T00:55:21;14.50;99.90
15630;DHT22;7914;50.842;0.166;2022-07-06T00:57:47;14.50;99.90
15630;DHT22;7914;50.842;0.166;2022-07-06T01:00:15;14.50;99.90
15630;DHT22;7914;50.842;0.166;2022-07-06T01:02:42;14.50;99.90
15630;DHT22;7914;50.842;0.166;2022-07-06T01:05:09;14.50;99.90
15630;DHT22;7914;50.842;0.166;2022-07-06T01:07:36;14.50;99.90
15630;DHT22;7914;50.842;0.166;2022-07-06T01:10:05;14.50;99.90
15630;DHT22;7914;50.842;0.166;2022-07-06T01:12:31;14.50;99.90
15630;DHT22;7914;50.842;0.166;2022-07-06T01:14:57;14.50;99.90
15630;DHT22;7914;50.842;0.166;2022-07-06T01:17:23;14.40;99.90
15630;DHT22;7914;50.842;0.166;2022-07-06T01:19:49;14.30;99.90
15630;DHT22;7914;50.842;0.166;2022-07-06T01:22:15;14.30;99.90
15630;DHT22;7914;50.842;0.166;2022-07-06T01:24:41;14.30;99.90
15630;DHT22;7914;50.842;0.166;2022-07-06T01:27:07;14.30;99.90
15630;DHT22;7914;50.842;0.166;2022-07-06T01:29:33;14.40;99.90
15630;DHT22;7914;50.842;0.166;2022-07-06T01:32:00;14.30;99.90
15630;DHT22;7914;50.842;0.166;2022-07-06T01:34:26;14.20;99.90
15630;DHT22;7914;50.842;0.166;2022-07-06T01:36:52;14.20;99.90
15630;DHT22;7914;50.842;0.166;2022-07-06T01:39:18;14.20;99.90
15630;DHT22;7914;50.842;0.166;2022-07-06T01:41:44;14.10;99.90
15630;DHT22;7914;50.842;0.166;2022-07-06T01:44:10;14.10;99.90
15630;DHT22;7914;50.842;0.166;2022-07-06T01:46:36;14.10;99.90
15630;DHT22;7914;50.842;0.166;2022-07-06T01:49:02;14.10;99.90
15630;DHT22;7914;50.842;0.166;2022-07-06T01:51:28;14.10;99.90
15630;DHT22;7914;50.842;0.166;2022-07-06T01:53:54;14.00;99.90
15630;DHT22;7914;50.842;0.166;2022-07-06T01:56:20;14.00;99.90
15630;DHT22;7914;50.842;0.166;2022-07-06T01:58:47;14.00;99.90
15630;DHT22;7914;50.842;0.166;2022-07-06T02:01:18;14.00;99.90
15630;DHT22;7914;50.842;0.166;2022-07-06T02:03:44;13.90;99.90
15630;DHT22;7914;50.842;0.166;2022-07-06T02:06:10;13.80;99.90
15630;DHT22;7914;50.842;0.166;2022-07-06T02:08:38;13.80;99.90
15630;DHT22;7914;50.842;0.166;2022-07-06T02:11:04;13.70;99.90
15630;DHT22;7914;50.842;0.166;2022-07-06T02:13:31;13.70;99.90
15630;DHT22;7914;50.842;0.166;2022-07-06T02:15:56;13.60;99.90
15630;DHT22;7914;50.842;0.166;2022-07-06T02:18:22;13.50;99.90
15630;DHT22;7914;50.842;0.166;2022-07-06T02:20:48;13.60;99.90
15630;DHT22;7914;50.842;0.166;2022-07-06T02:23:13;13.60;99.90
15630;DHT22;7914;50.842;0.166;2022-07-06T02:25:39;13.50;99.90
15630;DHT22;7914;50.842;0.166;2022-07-06T02:28:05;13.50;99.90
15630;DHT22;7914;50.842;0.166;2022-07-06T02:30:30;13.50;99.90
15630;DHT22;7914;50.842;0.166;2022-07-06T02:32:56;13.40;99.90
15630;DHT22;7914;50.842;0.166;2022-07-06T02:35:22;13.40;99.90
15630;DHT22;7914;50.842;0.166;2022-07-06T02:37:48;13.30;99.90
15630;DHT22;7914;50.842;0.166;2022-07-06T02:40:13;13.30;99.90
15630;DHT22;7914;50.842;0.166;2022-07-06T02:42:39;13.20;99.90
15630;DHT22;7914;50.842;0.166;2022-07-06T02:45:05;13.20;99.90
15630;DHT22;7914;50.842;0.166;2022-07-06T02:47:31;13.20;99.90
15630;DHT22;7914;50.842;0.166;2022-07-06T02:49:57;13.20;99.90
15630;DHT22;7914;50.842;0.166;2022-07-06T02:52:23;13.20;99.90
15630;DHT22;7914;50.842;0.166;2022-07-06T02:54:49;13.20;99.90
15630;DHT22;7914;50.842;0.166;2022-07-06T02:57:15;13.10;99.90
15630;DHT22;7914;50.842;0.166;2022-07-06T02:59:41;13.10;99.90
15630;DHT22;7914;50.842;0.166;2022-07-06T03:02:07;13.00;99.90
15630;DHT22;7914;50.842;0.166;2022-07-06T03:04:33;13.00;99.90
15630;DHT22;7914;50.842;0.166;2022-07-06T03:06:59;13.00;99.90
15630;DHT22;7914;50.842;0.166;2022-07-06T03:09:25;12.90;99.90
15630;DHT22;7914;50.842;0.166;2022-07-06T03:11:51;12.90;99.90
15630;DHT22;7914;50.842;0.166;2022-07-06T03:14:17;12.80;99.90
15630;DHT22;7914;50.842;0.166;2022-07-06T03:16:42;12.70;99.90
15630;DHT22;7914;50.842;0.166;2022-07-06T03:19:10;12.70;99.90
15630;DHT22;7914;50.842;0.166;2022-07-06T03:21:35;12.70;99.90
15630;DHT22;7914;50.842;0.166;2022-07-06T03:24:01;12.70;99.90
15630;DHT22;7914;50.842;0.166;2022-07-06T03:26:27;12.70;99.90
15630;DHT22;7914;50.842;0.166;2022-07-06T03:28:52;12.70;99.90
15630;DHT22;7914;50.842;0.166;2022-07-06T03:31:18;12.70;99.90
15630;DHT22;7914;50.842;0.166;2022-07-06T03:33:44;12.80;99.90
15630;DHT22;7914;50.842;0.166;2022-07-06T03:36:09;12.80;99.90
15630;DHT22;7914;50.842;0.166;2022-07-06T03:38:36;12.80;99.90
15630;DHT22;7914;50.842;0.166;2022-07-06T03:41:02;12.80;99.90
15630;DHT22;7914;50.842;0.166;2022-07-06T03:43:28;12.90;99.90
15630;DHT22;7914;50.842;0.166;2022-07-06T03:45:53;12.90;99.90
15630;DHT22;7914;50.842;0.166;2022-07-06T03:48:19;12.90;99.90
15630;DHT22;7914;50.842;0.166;2022-07-06T03:50:45;12.90;99.90
15630;DHT22;7914;50.842;0.166;2022-07-06T03:53:11;12.80;99.90
15630;DHT22;7914;50.842;0.166;2022-07-06T03:55:36;12.80;99.90
15630;DHT22;7914;50.842;0.166;2022-07-06T03:58:02;12.80;99.90
15630;DHT22;7914;50.842;0.166;2022-07-06T04:00:28;12.80;99.90
15630;DHT22;7914;50.842;0.166;2022-07-06T04:02:54;12.80;99.90
15630;DHT22;7914;50.842;0.166;2022-07-06T04:05:19;12.80;99.90
15630;DHT22;7914;50.842;0.166;2022-07-06T04:07:50;12.80;99.90
15630;DHT22;7914;50.842;0.166;2022-07-06T04:10:16;12.80;99.90
15630;DHT22;7914;50.842;0.166;2022-07-06T04:12:43;12.80;99.90
15630;DHT22;7914;50.842;0.166;2022-07-06T04:15:10;12.90;99.90
15630;DHT22;7914;50.842;0.166;2022-07-06T04:17:36;12.90;99.90
15630;DHT22;7914;50.842;0.166;2022-07-06T04:20:24;12.90;99.90
15630;DHT22;7914;50.842;0.166;2022-07-06T04:22:51;12.80;99.90
15630;DHT22;7914;50.842;0.166;2022-07-06T04:25:17;12.80;99.90
15630;DHT22;7914;50.842;0.166;2022-07-06T04:27:43;12.90;99.90
15630;DHT22;7914;50.842;0.166;2022-07-06T04:30:09;12.90;99.90
15630;DHT22;7914;50.842;0.166;2022-07-06T04:32:35;12.90;99.90
15630;DHT22;7914;50.842;0.166;2022-07-06T04:35:02;13.00;99.90
15630;DHT22;7914;50.842;0.166;2022-07-06T04:37:28;13.00;99.90
15630;DHT22;7914;50.842;0.166;2022-07-06T04:39:54;13.10;99.90
15630;DHT22;7914;50.842;0.166;2022-07-06T04:42:19;13.10;99.90
15630;DHT22;7914;50.842;0.166;2022-07-06T04:44:45;13.20;99.90
15630;DHT22;7914;50.842;0.166;2022-07-06T04:47:12;13.20;99.90
15630;DHT22;7914;50.842;0.166;2022-07-06T04:49:37;13.20;99.90
15630;DHT22;7914;50.842;0.166;2022-07-06T04:52:04;13.20;99.90
15630;DHT22;7914;50.842;0.166;2022-07-06T04:54:29;13.20;99.90
15630;DHT22;7914;50.842;0.166;2022-07-06T04:56:55;13.30;99.90
15630;DHT22;7914;50.842;0.166;2022-07-06T04:59:21;13.30;99.90
15630;DHT22;7914;50.842;0.166;2022-07-06T05:01:47;13.50;99.90
15630;DHT22;7914;50.842;0.166;2022-07-06T05:04:12;13.70;99.90
15630;DHT22;7914;50.842;0.166;2022-07-06T05:06:39;14.10;99.90
15630;DHT22;7914;50.842;0.166;2022-07-06T05:09:05;14.60;99.90
15630;DHT22;7914;50.842;0.166;2022-07-06T05:11:31;15.00;99.90
15630;DHT22;7914;50.842;0.166;2022-07-06T05:13:57;15.40;99.90
15630;DHT22;7914;50.842;0.166;2022-07-06T05:16:23;15.50;99.90
15630;DHT22;7914;50.842;0.166;2022-07-06T05:18:48;15.90;99.90
15630;DHT22;7914;50.842;0.166;2022-07-06T05:21:14;16.20;99.90
15630;DHT22;7914;50.842;0.166;2022-07-06T05:23:40;16.80;99.90
15630;DHT22;7914;50.842;0.166;2022-07-06T05:26:06;17.00;85.40
15630;DHT22;7914;50.842;0.166;2022-07-06T05:28:31;17.20;83.90
15630;DHT22;7914;50.842;0.166;2022-07-06T05:30:57;17.40;86.60
15630;DHT22;7914;50.842;0.166;2022-07-06T05:33:23;17.10;86.40
15630;DHT22;7914;50.842;0.166;2022-07-06T05:35:50;16.80;94.00
15630;DHT22;7914;50.842;0.166;2022-07-06T05:38:16;16.50;99.90
15630;DHT22;7914;50.842;0.166;2022-07-06T05:40:42;16.20;99.90
15630;DHT22;7914;50.842;0.166;2022-07-06T05:43:07;16.00;99.90
15630;DHT22;7914;50.842;0.166;2022-07-06T05:45:33;15.80;99.90
15630;DHT22;7914;50.842;0.166;2022-07-06T05:47:59;15.70;99.90
15630;DHT22;7914;50.842;0.166;2022-07-06T05:50:43;16.10;99.90
15630;DHT22;7914;50.842;0.166;2022-07-06T05:53:09;16.70;99.90
15630;DHT22;7914;50.842;0.166;2022-07-06T05:55:34;17.60;90.30
15630;DHT22;7914;50.842;0.166;2022-07-06T05:58:00;18.40;44.60
15630;DHT22;7914;50.842;0.166;2022-07-06T06:00:27;18.90;21.00
15630;DHT22;7914;50.842;0.166;2022-07-06T06:02:53;19.10;23.10
15630;DHT22;7914;50.842;0.166;2022-07-06T06:05:18;18.90;18.00
15630;DHT22;7914;50.842;0.166;2022-07-06T06:07:45;18.70;26.00
15630;DHT22;7914;50.842;0.166;2022-07-06T06:10:15;18.40;46.40
15630;DHT22;7914;50.842;0.166;2022-07-06T06:12:41;18.00;60.90
15630;DHT22;7914;50.842;0.166;2022-07-06T06:15:08;17.90;61.50
15630;DHT22;7914;50.842;0.166;2022-07-06T06:17:35;18.00;61.80
15630;DHT22;7914;50.842;0.166;2022-07-06T06:20:01;18.10;60.60
15630;DHT22;7914;50.842;0.166;2022-07-06T06:22:27;18.20;52.30
15630;DHT22;7914;50.842;0.166;2022-07-06T06:24:53;18.20;50.00
15630;DHT22;7914;50.842;0.166;2022-07-06T06:27:19;18.00;60.50
15630;DHT22;7914;50.842;0.166;2022-07-06T06:29:45;18.00;87.90
15630;DHT22;7914;50.842;0.166;2022-07-06T06:32:11;18.30;79.70
15630;DHT22;7914;50.842;0.166;2022-07-06T06:34:37;18.40;54.10
15630;DHT22;7914;50.842;0.166;2022-07-06T06:37:04;18.60;43.90
15630;DHT22;7914;50.842;0.166;2022-07-06T06:39:30;18.80;58.50
15630;DHT22;7914;50.842;0.166;2022-07-06T06:41:55;18.90;36.40
15630;DHT22;7914;50.842;0.166;2022-07-06T06:44:21;18.80;28.30
15630;DHT22;7914;50.842;0.166;2022-07-06T06:46:50;18.70;57.50
15630;DHT22;7914;50.842;0.166;2022-07-06T06:49:17;18.50;48.60
15630;DHT22;7914;50.842;0.166;2022-07-06T06:51:44;18.30;48.40
15630;DHT22;7914;50.842;0.166;2022-07-06T06:54:10;18.30;53.50
15630;DHT22;7914;50.842;0.166;2022-07-06T06:56:36;18.50;66.70
15630;DHT22;7914;50.842;0.166;2022-07-06T06:59:02;18.90;55.10
15630;DHT22;7914;50.842;0.166;2022-07-06T07:01:28;19.20;31.40
15630;DHT22;7914;50.842;0.166;2022-07-06T07:03:53;19.70;13.40
15630;DHT22;7914;50.842;0.166;2022-07-06T07:06:21;19.70;10.40
15630;DHT22;7914;50.842;0.166;2022-07-06T07:08:47;19.90;4.70
15630;DHT22;7914;50.842;0.166;2022-07-06T07:11:12;19.80;1.00
15630;DHT22;7914;50.842;0.166;2022-07-06T07:13:38;19.90;1.00
15630;DHT22;7914;50.842;0.166;2022-07-06T07:16:04;19.60;1.00
15630;DHT22;7914;50.842;0.166;2022-07-06T07:18:30;19.40;1.00
15630;DHT22;7914;50.842;0.166;2022-07-06T07:20:56;19.00;1.00
15630;DHT22;7914;50.842;0.166;2022-07-06T07:23:21;18.90;2.00
15630;DHT22;7914;50.842;0.166;2022-07-06T07:25:47;19.20;1.30
15630;DHT22;7914;50.842;0.166;2022-07-06T07:28:13;19.60;1.00
15630;DHT22;7914;50.842;0.166;2022-07-06T07:30:39;19.50;1.00
15630;DHT22;7914;50.842;0.166;2022-07-06T07:33:04;19.40;5.10
15630;DHT22;7914;50.842;0.166;2022-07-06T07:35:30;19.30;6.10
15630;DHT22;7914;50.842;0.166;2022-07-06T07:37:56;19.40;3.20
15630;DHT22;7914;50.842;0.166;2022-07-06T07:40:21;19.60;1.00
15630;DHT22;7914;50.842;0.166;2022-07-06T07:42:47;19.90;1.00
15630;DHT22;7914;50.842;0.166;2022-07-06T07:45:13;20.10;1.00
15630;DHT22;7914;50.842;0.166;2022-07-06T07:47:39;20.20;1.00
15630;DHT22;7914;50.842;0.166;2022-07-06T07:50:05;20.50;1.00
15630;DHT22;7914;50.842;0.166;2022-07-06T07:52:31;20.80;1.00
15630;DHT22;7914;50.842;0.166;2022-07-06T07:54:57;20.90;1.00
15630;DHT22;7914;50.842;0.166;2022-07-06T07:57:23;21.20;1.00
15630;DHT22;7914;50.842;0.166;2022-07-06T07:59:48;21.30;1.00
15630;DHT22;7914;50.842;0.166;2022-07-06T08:02:14;21.10;1.00
15630;DHT22;7914;50.842;0.166;2022-07-06T08:04:40;21.20;1.00
15630;DHT22;7914;50.842;0.166;2022-07-06T08:07:06;21.40;1.00
15630;DHT22;7914;50.842;0.166;2022-07-06T08:09:33;21.30;1.00
15630;DHT22;7914;50.842;0.166;2022-07-06T08:11:59;21.60;1.00
15630;DHT22;7914;50.842;0.166;2022-07-06T08:14:25;21.90;1.00
15630;DHT22;7914;50.842;0.166;2022-07-06T08:16:51;22.00;1.00
15630;DHT22;7914;50.842;0.166;2022-07-06T08:19:17;21.90;1.00
15630;DHT22;7914;50.842;0.166;2022-07-06T08:21:43;21.90;1.00
15630;DHT22;7914;50.842;0.166;2022-07-06T08:24:10;22.20;1.00
15630;DHT22;7914;50.842;0.166;2022-07-06T08:26:36;22.20;1.00
15630;DHT22;7914;50.842;0.166;2022-07-06T08:29:02;22.40;1.00
15630;DHT22;7914;50.842;0.166;2022-07-06T08:31:29;22.50;1.00
15630;DHT22;7914;50.842;0.166;2022-07-06T08:33:55;22.60;1.00
15630;DHT22;7914;50.842;0.166;2022-07-06T08:36:21;22.60;1.00
15630;DHT22;7914;50.842;0.166;2022-07-06T08:38:47;22.70;1.00
15630;DHT22;7914;50.842;0.166;2022-07-06T08:41:14;23.00;1.00
15630;DHT22;7914;50.842;0.166;2022-07-06T08:43:40;23.30;1.00
15630;DHT22;7914;50.842;0.166;2022-07-06T08:46:07;23.30;1.00
15630;DHT22;7914;50.842;0.166;2022-07-06T08:48:37;23.40;1.00
15630;DHT22;7914;50.842;0.166;2022-07-06T08:51:05;23.40;1.00
15630;DHT22;7914;50.842;0.166;2022-07-06T08:53:31;23.40;1.00
15630;DHT22;7914;50.842;0.166;2022-07-06T08:55:57;23.40;1.00
15630;DHT22;7914;50.842;0.166;2022-07-06T08:58:26;23.40;1.00
15630;DHT22;7914;50.842;0.166;2022-07-06T09:00:56;23.00;1.00
15630;DHT22;7914;50.842;0.166;2022-07-06T09:03:23;22.80;1.00
15630;DHT22;7914;50.842;0.166;2022-07-06T09:05:50;22.80;1.00
15630;DHT22;7914;50.842;0.166;2022-07-06T09:08:16;23.10;1.00
15630;DHT22;7914;50.842;0.166;2022-07-06T09:10:43;23.10;1.00
15630;DHT22;7914;50.842;0.166;2022-07-06T09:13:09;23.50;1.00
15630;DHT22;7914;50.842;0.166;2022-07-06T09:15:36;23.40;1.00
15630;DHT22;7914;50.842;0.166;2022-07-06T09:18:05;23.50;1.00
15630;DHT22;7914;50.842;0.166;2022-07-06T09:20:31;23.50;1.00
15630;DHT22;7914;50.842;0.166;2022-07-06T09:22:58;23.30;1.00
15630;DHT22;7914;50.842;0.166;2022-07-06T09:25:25;23.00;1.00
15630;DHT22;7914;50.842;0.166;2022-07-06T09:27:51;22.90;1.00
15630;DHT22;7914;50.842;0.166;2022-07-06T09:30:21;23.00;1.00
15630;DHT22;7914;50.842;0.166;2022-07-06T09:32:49;23.20;1.00
15630;DHT22;7914;50.842;0.166;2022-07-06T09:35:29;23.60;1.00
15630;DHT22;7914;50.842;0.166;2022-07-06T09:40:31;23.80;1.00
15630;DHT22;7914;50.842;0.166;2022-07-06T09:43:08;24.10;1.00
15630;DHT22;7914;50.842;0.166;2022-07-06T09:45:38;24.10;1.00
15630;DHT22;7914;50.842;0.166;2022-07-06T09:48:13;24.00;1.00
15630;DHT22;7914;50.842;0.166;2022-07-06T09:50:46;24.00;1.00
15630;DHT22;7914;50.842;0.166;2022-07-06T09:53:13;24.00;1.00
15630;DHT22;7914;50.842;0.166;2022-07-06T09:55:49;24.00;1.00
15630;DHT22;7914;50.842;0.166;2022-07-06T09:58:16;24.30;1.00
15630;DHT22;7914;50.842;0.166;2022-07-06T10:00:44;24.00;1.00
15630;DHT22;7914;50.842;0.166;2022-07-06T10:03:10;24.10;1.00
15630;DHT22;7914;50.842;0.166;2022-07-06T10:05:42;24.20;1.00
15630;DHT22;7914;50.842;0.166;2022-07-06T10:08:09;24.50;1.00
15630;DHT22;7914;50.842;0.166;2022-07-06T10:10:36;24.70;1.00
15630;DHT22;7914;50.842;0.166;2022-07-06T10:13:03;24.70;1.00
15630;DHT22;7914;50.842;0.166;2022-07-06T10:15:31;24.70;1.00
15630;DHT22;7914;50.842;0.166;2022-07-06T10:17:58;24.70;1.00
15630;DHT22;7914;50.842;0.166;2022-07-06T10:20:27;24.50;1.00
15630;DHT22;7914;50.842;0.166;2022-07-06T10:22:54;24.70;1.00
15630;DHT22;7914;50.842;0.166;2022-07-06T10:25:23;24.80;1.00
15630;DHT22;7914;50.842;0.166;2022-07-06T10:27:50;25.00;1.00
15630;DHT22;7914;50.842;0.166;2022-07-06T10:30:16;24.60;1.00
15630;DHT22;7914;50.842;0.166;2022-07-06T10:32:45;24.50;1.00
15630;DHT22;7914;50.842;0.166;2022-07-06T10:35:13;24.50;1.00
15630;DHT22;7914;50.842;0.166;2022-07-06T10:37:39;24.80;1.00
15630;DHT22;7914;50.842;0.166;2022-07-06T10:40:05;25.00;1.00
15630;DHT22;7914;50.842;0.166;2022-07-06T10:42:58;24.80;1.00
15630;DHT22;7914;50.842;0.166;2022-07-06T10:53:13;25.70;1.00
15630;DHT22;7914;50.842;0.166;2022-07-06T10:55:43;25.70;1.00
15630;DHT22;7914;50.842;0.166;2022-07-06T10:58:09;25.80;1.00
15630;DHT22;7914;50.842;0.166;2022-07-06T11:00:48;25.70;1.00
15630;DHT22;7914;50.842;0.166;2022-07-06T11:03:30;25.70;1.00
15630;DHT22;7914;50.842;0.166;2022-07-06T11:06:00;26.00;1.00
15630;DHT22;7914;50.842;0.166;2022-07-06T11:16:20;25.70;1.00
15630;DHT22;7914;50.842;0.166;2022-07-06T11:18:58;25.80;1.00
15630;DHT22;7914;50.842;0.166;2022-07-06T11:21:33;26.30;1.00
15630;DHT22;7914;50.842;0.166;2022-07-06T11:24:00;26.30;1.00
15630;DHT22;7914;50.842;0.166;2022-07-06T11:26:27;26.20;1.00
15630;DHT22;7914;50.842;0.166;2022-07-06T11:28:53;26.30;1.00
15630;DHT22;7914;50.842;0.166;2022-07-06T11:31:19;26.30;1.00
15630;DHT22;7914;50.842;0.166;2022-07-06T11:33:46;26.60;1.00
15630;DHT22;7914;50.842;0.166;2022-07-06T11:36:17;26.80;1.00
15630;DHT22;7914;50.842;0.166;2022-07-06T11:38:45;26.40;1.00
15630;DHT22;7914;50.842;0.166;2022-07-06T11:41:12;26.20;1.00
15630;DHT22;7914;50.842;0.166;2022-07-06T11:43:46;25.90;1.00
15630;DHT22;7914;50.842;0.166;2022-07-06T11:46:21;25.80;1.00
15630;DHT22;7914;50.842;0.166;2022-07-06T11:48:49;25.90;1.00
15630;DHT22;7914;50.842;0.166;2022-07-06T11:51:15;26.00;1.00
15630;DHT22;7914;50.842;0.166;2022-07-06T11:53:50;26.50;1.00
15630;DHT22;7914;50.842;0.166;2022-07-06T11:56:16;26.90;1.00
15630;DHT22;7914;50.842;0.166;2022-07-06T11:58:45;27.00;1.00
15630;DHT22;7914;50.842;0.166;2022-07-06T12:01:13;26.90;1.00
15630;DHT22;7914;50.842;0.166;2022-07-06T12:03:39;26.70;1.00
15630;DHT22;7914;50.842;0.166;2022-07-06T12:06:07;26.50;1.00
15630;DHT22;7914;50.842;0.166;2022-07-06T12:08:45;26.50;1.00
15630;DHT22;7914;50.842;0.166;2022-07-06T12:11:17;26.10;1.00
15630;DHT22;7914;50.842;0.166;2022-07-06T12:13:44;25.80;1.00
15630;DHT22;7914;50.842;0.166;2022-07-06T12:16:14;25.50;1.00
15630;DHT22;7914;50.842;0.166;2022-07-06T12:18:42;25.50;1.00
15630;DHT22;7914;50.842;0.166;2022-07-06T12:21:12;25.50;1.00
15630;DHT22;7914;50.842;0.166;2022-07-06T12:23:46;25.40;1.00
15630;DHT22;7914;50.842;0.166;2022-07-06T12:26:14;25.50;1.00
15630;DHT22;7914;50.842;0.166;2022-07-06T12:28:41;25.40;1.00
15630;DHT22;7914;50.842;0.166;2022-07-06T12:31:07;25.30;1.00
15630;DHT22;7914;50.842;0.166;2022-07-06T12:33:33;25.10;1.00
15630;DHT22;7914;50.842;0.166;2022-07-06T12:36:11;25.00;1.00
15630;DHT22;7914;50.842;0.166;2022-07-06T12:38:47;24.70;1.00
15630;DHT22;7914;50.842;0.166;2022-07-06T12:41:33;24.50;1.00
15630;DHT22;7914;50.842;0.166;2022-07-06T12:44:05;24.30;1.00
15630;DHT22;7914;50.842;0.166;2022-07-06T12:46:36;24.10;1.00
15630;DHT22;7914;50.842;0.166;2022-07-06T12:49:11;23.90;1.00
15630;DHT22;7914;50.842;0.166;2022-07-06T12:52:08;23.90;1.00
15630;DHT22;7914;50.842;0.166;2022-07-06T12:54:47;24.10;1.00
15630;DHT22;7914;50.842;0.166;2022-07-06T12:57:17;24.10;1.00
15630;DHT22;7914;50.842;0.166;2022-07-06T12:59:44;24.10;1.00
15630;DHT22;7914;50.842;0.166;2022-07-06T13:02:21;23.90;1.00
15630;DHT22;7914;50.842;0.166;2022-07-06T13:05:08;23.80;1.00
15630;DHT22;7914;50.842;0.166;2022-07-06T13:07:36;23.60;1.00
15630;DHT22;7914;50.842;0.166;2022-07-06T13:10:06;23.40;1.00
15630;DHT22;7914;50.842;0.166;2022-07-06T13:12:32;23.30;1.00
15630;DHT22;7914;50.842;0.166;2022-07-06T13:14:58;23.20;1.00
15630;DHT22;7914;50.842;0.166;2022-07-06T13:17:24;23.10;1.00
15630;DHT22;7914;50.842;0.166;2022-07-06T13:19:50;23.20;1.00
15630;DHT22;7914;50.842;0.166;2022-07-06T13:22:16;23.20;1.00
15630;DHT22;7914;50.842;0.166;2022-07-06T13:24:42;23.40;1.00
15630;DHT22;7914;50.842;0.166;2022-07-06T13:27:08;23.70;1.00
15630;DHT22;7914;50.842;0.166;2022-07-06T13:29:34;23.90;1.00
15630;DHT22;7914;50.842;0.166;2022-07-06T13:32:00;24.10;1.00
15630;DHT22;7914;50.842;0.166;2022-07-06T13:34:26;24.30;1.00
15630;DHT22;7914;50.842;0.166;2022-07-06T13:36:52;24.50;1.00
15630;DHT22;7914;50.842;0.166;2022-07-06T13:39:18;24.70;1.00
15630;DHT22;7914;50.842;0.166;2022-07-06T13:41:44;24.80;1.00
15630;DHT22;7914;50.842;0.166;2022-07-06T13:44:10;24.90;1.00
15630;DHT22;7914;50.842;0.166;2022-07-06T13:46:38;25.10;1.00
15630;DHT22;7914;50.842;0.166;2022-07-06T13:49:05;24.90;1.00
15630;DHT22;7914;50.842;0.166;2022-07-06T13:51:31;24.80;1.00
15630;DHT22;7914;50.842;0.166;2022-07-06T13:53:58;24.50;1.00
15630;DHT22;7914;50.842;0.166;2022-07-06T13:56:26;24.30;1.00
15630;DHT22;7914;50.842;0.166;2022-07-06T13:58:52;24.00;1.00
15630;DHT22;7914;50.842;0.166;2022-07-06T14:01:18;24.00;1.00
15630;DHT22;7914;50.842;0.166;2022-07-06T14:03:44;24.10;1.00
15630;DHT22;7914;50.842;0.166;2022-07-06T14:06:10;23.90;1.00
15630;DHT22;7914;50.842;0.166;2022-07-06T14:08:37;23.80;1.00
15630;DHT22;7914;50.842;0.166;2022-07-06T14:11:05;23.60;1.00
15630;DHT22;7914;50.842;0.166;2022-07-06T14:13:33;23.70;1.00
15630;DHT22;7914;50.842;0.166;2022-07-06T14:15:59;23.80;1.00
15630;DHT22;7914;50.842;0.166;2022-07-06T14:18:25;23.90;1.00
15630;DHT22;7914;50.842;0.166;2022-07-06T14:20:52;23.80;1.00
15630;DHT22;7914;50.842;0.166;2022-07-06T14:23:18;24.00;1.00
15630;DHT22;7914;50.842;0.166;2022-07-06T14:25:45;24.20;1.00
15630;DHT22;7914;50.842;0.166;2022-07-06T14:28:11;24.30;1.00
15630;DHT22;7914;50.842;0.166;2022-07-06T14:30:41;24.30;1.00
15630;DHT22;7914;50.842;0.166;2022-07-06T14:33:08;24.20;1.00
15630;DHT22;7914;50.842;0.166;2022-07-06T14:35:36;24.40;1.00
15630;DHT22;7914;50.842;0.166;2022-07-06T14:38:02;24.10;1.00
15630;DHT22;7914;50.842;0.166;2022-07-06T14:40:29;24.00;1.00
15630;DHT22;7914;50.842;0.166;2022-07-06T14:42:55;23.80;1.00
15630;DHT22;7914;50.842;0.166;2022-07-06T14:45:21;23.60;1.00
15630;DHT22;7914;50.842;0.166;2022-07-06T14:47:47;23.40;1.00
15630;DHT22;7914;50.842;0.166;2022-07-06T14:50:12;23.50;1.00
15630;DHT22;7914;50.842;0.166;2022-07-06T14:52:38;23.60;1.00
15630;DHT22;7914;50.842;0.166;2022-07-06T14:55:05;23.90;1.00
15630;DHT22;7914;50.842;0.166;2022-07-06T14:57:30;24.00;1.00
15630;DHT22;7914;50.842;0.166;2022-07-06T14:59:56;24.00;1.00
15630;DHT22;7914;50.842;0.166;2022-07-06T15:02:22;24.10;1.00
15630;DHT22;7914;50.842;0.166;2022-07-06T15:04:47;24.20;1.00
15630;DHT22;7914;50.842;0.166;2022-07-06T15:07:13;24.30;1.00
15630;DHT22;7914;50.842;0.166;2022-07-06T15:09:39;24.20;1.00
15630;DHT22;7914;50.842;0.166;2022-07-06T15:12:05;24.10;1.00
15630;DHT22;7914;50.842;0.166;2022-07-06T15:14:31;24.00;1.00
15630;DHT22;7914;50.842;0.166;2022-07-06T15:16:57;24.00;1.00
15630;DHT22;7914;50.842;0.166;2022-07-06T15:19:24;24.00;1.00
15630;DHT22;7914;50.842;0.166;2022-07-06T15:21:50;23.90;1.00
15630;DHT22;7914;50.842;0.166;2022-07-06T15:24:16;23.80;1.00
15630;DHT22;7914;50.842;0.166;2022-07-06T15:26:42;23.50;1.00
15630;DHT22;7914;50.842;0.166;2022-07-06T15:29:08;23.50;1.00
15630;DHT22;7914;50.842;0.166;2022-07-06T15:31:33;23.50;1.00
15630;DHT22;7914;50.842;0.166;2022-07-06T15:33:59;23.40;1.00
15630;DHT22;7914;50.842;0.166;2022-07-06T15:36:25;23.30;1.00
15630;DHT22;7914;50.842;0.166;2022-07-06T15:38:51;23.40;1.00
15630;DHT22;7914;50.842;0.166;2022-07-06T15:41:17;23.20;1.00
15630;DHT22;7914;50.842;0.166;2022-07-06T15:43:43;23.20;1.00
15630;DHT22;7914;50.842;0.166;2022-07-06T15:46:08;23.10;1.00
15630;DHT22;7914;50.842;0.166;2022-07-06T15:48:36;23.10;1.00
15630;DHT22;7914;50.842;0.166;2022-07-06T15:51:02;23.00;1.00
15630;DHT22;7914;50.842;0.166;2022-07-06T15:53:28;23.10;1.00
15630;DHT22;7914;50.842;0.166;2022-07-06T15:55:56;23.00;1.00
15630;DHT22;7914;50.842;0.166;2022-07-06T15:58:22;23.10;1.00
15630;DHT22;7914;50.842;0.166;2022-07-06T16:00:48;23.20;1.00
15630;DHT22;7914;50.842;0.166;2022-07-06T16:03:13;23.20;1.00
15630;DHT22;7914;50.842;0.166;2022-07-06T16:05:39;23.40;1.00
15630;DHT22;7914;50.842;0.166;2022-07-06T16:08:05;23.50;1.00
15630;DHT22;7914;50.842;0.166;2022-07-06T16:10:31;23.40;1.00
15630;DHT22;7914;50.842;0.166;2022-07-06T16:12:57;23.40;1.00